createdAt,value
2022-08-17T00:00:49.437Z,6.50
2022-08-17T00:01:52.124Z,5.70
2022-08-17T00:02:42.871Z,8.00
2022-08-17T00:03:34.818Z,6.30
2022-08-17T00:04:34.815Z,7.50
2022-08-17T00:05:34.781Z,7.90
2022-08-17T00:06:34.770Z,8.00
2022-08-17T00:07:34.781Z,7.00
2022-08-17T00:08:34.747Z,8.70
2022-08-17T00:09:35.342Z,7.20
2022-08-17T00:10:34.735Z,7.30
2022-08-17T00:11:34.728Z,5.70
2022-08-17T00:12:43.284Z,6.60
2022-08-17T00:13:34.732Z,8.40
2022-08-17T00:14:34.709Z,8.40
2022-08-17T00:15:34.679Z,9.40
2022-08-17T00:16:50.379Z,7.20
2022-08-17T00:17:34.670Z,8.10
2022-08-17T00:19:06.395Z,7.40
2022-08-17T00:19:34.651Z,6.90
2022-08-17T00:20:35.047Z,7.70
2022-08-17T00:21:57.934Z,6.40
2022-08-17T00:22:37.995Z,7.30
2022-08-17T00:23:34.626Z,6.70
2022-08-17T00:24:34.581Z,9.40
2022-08-17T00:25:34.572Z,7.30
2022-08-17T00:26:44.716Z,7.10
2022-08-17T00:27:34.560Z,9.30
2022-08-17T00:28:34.572Z,8.40
2022-08-17T00:29:34.541Z,8.60
2022-08-17T00:30:51.316Z,7.20
2022-08-17T00:31:34.516Z,8.00
2022-08-17T00:33:16.083Z,9.60
2022-08-17T00:33:34.525Z,8.50
2022-08-17T00:34:34.475Z,9.00
2022-08-17T00:35:34.470Z,6.80
2022-08-17T00:36:34.470Z,7.70
2022-08-17T00:37:35.436Z,9.10
2022-08-17T00:38:34.452Z,7.50
2022-08-17T00:39:34.500Z,6.90
2022-08-17T00:40:40.671Z,8.40
2022-08-17T00:41:34.418Z,6.30
2022-08-17T00:42:34.396Z,8.80
2022-08-17T00:43:34.408Z,6.50
2022-08-17T00:44:34.369Z,7.90
2022-08-17T00:45:34.385Z,6.30
2022-08-17T00:46:34.360Z,6.20
2022-08-17T00:47:34.353Z,7.90
2022-08-17T00:48:34.362Z,6.70
2022-08-17T00:49:34.325Z,6.60
2022-08-17T00:50:34.354Z,8.70
2022-08-17T00:51:34.311Z,8.60
2022-08-17T00:52:34.298Z,8.30
2022-08-17T00:53:34.302Z,7.20
2022-08-17T00:54:42.096Z,6.90
2022-08-17T00:55:34.285Z,7.30
2022-08-17T00:56:34.248Z,7.10
2022-08-17T00:57:34.239Z,10.90
2022-08-17T00:58:36.136Z,9.10
2022-08-17T00:59:34.227Z,9.60
2022-08-17T01:00:34.215Z,7.60
2022-08-17T01:01:34.236Z,7.40
2022-08-17T01:02:40.375Z,6.30
2022-08-17T01:03:34.217Z,8.30
2022-08-17T01:04:34.161Z,8.50
2022-08-17T01:05:34.179Z,7.60
2022-08-17T01:06:34.157Z,6.30
2022-08-17T01:07:34.132Z,6.60
2022-08-17T01:08:34.153Z,7.50
2022-08-17T01:09:34.130Z,7.40
2022-08-17T01:10:58.345Z,8.60
2022-08-17T01:11:34.101Z,9.00
2022-08-17T01:12:34.076Z,6.60
2022-08-17T01:13:40.169Z,7.90
2022-08-17T01:14:34.063Z,7.80
2022-08-17T01:15:34.060Z,7.60
2022-08-17T01:16:34.048Z,8.50
2022-08-17T01:17:34.031Z,8.20
2022-08-17T01:18:34.074Z,8.80
2022-08-17T01:19:34.027Z,8.90
2022-08-17T01:20:41.847Z,5.80
2022-08-17T01:21:33.994Z,6.30
2022-08-17T01:22:33.983Z,9.10
2022-08-17T01:23:33.989Z,9.00
2022-08-17T01:24:33.952Z,6.30
2022-08-17T01:25:33.944Z,8.40
2022-08-17T01:26:33.934Z,6.50
2022-08-17T01:27:33.935Z,10.80
2022-08-17T01:28:53.865Z,7.20
2022-08-17T01:29:33.908Z,8.10
2022-08-17T01:30:56.802Z,9.70
2022-08-17T01:31:34.871Z,7.90
2022-08-17T01:32:33.871Z,7.40
2022-08-17T01:33:33.898Z,10.40
2022-08-17T01:34:42.542Z,6.50
2022-08-17T01:35:33.847Z,7.60
2022-08-17T01:36:33.845Z,8.00
2022-08-17T01:37:33.847Z,8.90
2022-08-17T01:38:33.853Z,8.00
2022-08-17T01:39:33.876Z,10.40
2022-08-17T01:40:33.797Z,9.50
2022-08-17T01:41:33.789Z,9.50
2022-08-17T01:42:33.783Z,8.30
2022-08-17T01:43:33.759Z,9.90
2022-08-17T01:44:33.774Z,8.40
2022-08-17T01:45:33.770Z,6.90
2022-08-17T01:46:33.723Z,8.20
2022-08-17T01:47:36.067Z,9.50
2022-08-17T01:48:33.703Z,8.60
2022-08-17T01:49:33.731Z,6.40
2022-08-17T01:50:33.694Z,9.40
2022-08-17T01:51:33.698Z,8.70
2022-08-17T01:52:33.666Z,7.10
2022-08-17T01:53:33.655Z,7.60
2022-08-17T01:54:33.658Z,6.60
2022-08-17T01:55:33.651Z,7.70
2022-08-17T01:56:33.630Z,8.70
2022-08-17T01:57:33.632Z,8.00
2022-08-17T01:58:33.616Z,7.40
2022-08-17T01:59:33.623Z,8.10
2022-08-17T02:00:59.858Z,8.70
2022-08-17T02:01:33.656Z,7.10
2022-08-17T02:02:33.577Z,7.50
2022-08-17T02:03:33.555Z,9.20
2022-08-17T02:04:33.576Z,8.80
2022-08-17T02:05:33.550Z,7.90
2022-08-17T02:06:44.980Z,8.70
2022-08-17T02:07:33.515Z,9.70
2022-08-17T02:08:37.044Z,8.20
2022-08-17T02:09:33.536Z,11.30
2022-08-17T02:10:33.981Z,7.80
2022-08-17T02:11:33.489Z,7.80
2022-08-17T02:12:37.900Z,8.40
2022-08-17T02:13:33.453Z,8.70
2022-08-17T02:14:33.456Z,7.40
2022-08-17T02:15:33.425Z,9.60
2022-08-17T02:16:37.854Z,10.30
2022-08-17T02:17:33.401Z,8.50
2022-08-17T02:18:33.397Z,6.90
2022-08-17T02:19:33.421Z,7.10
2022-08-17T02:20:42.189Z,8.20
2022-08-17T02:21:33.368Z,8.00
2022-08-17T02:22:33.362Z,8.20
2022-08-17T02:23:33.346Z,9.30
2022-08-17T02:24:58.865Z,10.40
2022-08-17T02:25:33.346Z,8.40
2022-08-17T02:26:33.320Z,9.60
2022-08-17T02:27:33.307Z,9.60
2022-08-17T02:28:33.301Z,9.60
2022-08-17T02:29:33.295Z,8.50
2022-08-17T02:31:01.639Z,8.10
2022-08-17T02:31:33.266Z,10.40
2022-08-17T02:32:33.269Z,7.70
2022-08-17T02:33:43.266Z,7.70
2022-08-17T02:34:33.255Z,7.50
2022-08-17T02:35:33.224Z,7.70
2022-08-17T02:36:33.224Z,7.50
2022-08-17T02:37:33.191Z,7.70
2022-08-17T02:38:33.208Z,6.80
2022-08-17T02:39:33.242Z,9.20
2022-08-17T02:40:36.135Z,7.40
2022-08-17T02:41:33.167Z,8.50
2022-08-17T02:42:33.164Z,8.70
2022-08-17T02:43:33.140Z,6.80
2022-08-17T02:44:39.180Z,7.30
2022-08-17T02:45:33.116Z,8.70
2022-08-17T02:46:33.104Z,8.90
2022-08-17T02:47:33.103Z,7.40
2022-08-17T02:48:33.087Z,6.60
2022-08-17T02:49:33.110Z,8.40
2022-08-17T02:50:33.085Z,6.70
2022-08-17T02:51:33.046Z,8.80
2022-08-17T02:52:42.676Z,6.80
2022-08-17T02:53:35.963Z,8.00
2022-08-17T02:54:39.692Z,8.50
2022-08-17T02:55:33.010Z,8.00
2022-08-17T02:56:33.015Z,7.90
2022-08-17T02:57:32.995Z,8.90
2022-08-17T02:58:35.522Z,8.40
2022-08-17T02:59:32.982Z,8.80
2022-08-17T03:00:32.974Z,7.20
2022-08-17T03:01:33.048Z,8.80
2022-08-17T03:02:32.935Z,9.10
2022-08-17T03:03:32.934Z,9.20
2022-08-17T03:04:35.309Z,8.30
2022-08-17T03:05:32.918Z,7.60
2022-08-17T03:06:32.894Z,8.40
2022-08-17T03:07:32.889Z,7.60
2022-08-17T03:08:32.881Z,7.50
2022-08-17T03:09:32.888Z,8.40
2022-08-17T03:10:32.861Z,6.80
2022-08-17T03:11:32.845Z,6.00
2022-08-17T03:12:32.831Z,8.80
2022-08-17T03:13:32.813Z,7.70
2022-08-17T03:14:32.843Z,8.90
2022-08-17T03:15:32.810Z,7.50
2022-08-17T03:16:32.788Z,8.60
2022-08-17T03:17:32.770Z,7.70
2022-08-17T03:18:32.781Z,8.00
2022-08-17T03:19:32.791Z,7.40
2022-08-17T03:20:32.765Z,8.00
2022-08-17T03:21:32.740Z,8.40
2022-08-17T03:22:47.939Z,6.10
2022-08-17T03:23:32.729Z,8.70
2022-08-17T03:24:32.734Z,10.60
2022-08-17T03:25:32.704Z,7.00
2022-08-17T03:26:32.704Z,8.60
2022-08-17T03:27:32.691Z,9.00
2022-08-17T03:28:32.678Z,7.80
2022-08-17T03:29:32.690Z,8.40
2022-08-17T03:30:32.647Z,7.90
2022-08-17T03:31:32.664Z,9.10
2022-08-17T03:32:32.636Z,8.50
2022-08-17T03:33:32.626Z,8.20
2022-08-17T03:34:32.624Z,7.30
2022-08-17T03:35:32.587Z,9.00
2022-08-17T03:36:32.600Z,8.10
2022-08-17T03:37:32.581Z,8.00
2022-08-17T03:38:39.379Z,8.70
2022-08-17T03:39:32.694Z,9.00
2022-08-17T03:40:55.058Z,8.10
2022-08-17T03:41:32.529Z,10.20
2022-08-17T03:42:32.949Z,9.00
2022-08-17T03:43:32.523Z,6.90
2022-08-17T03:44:32.519Z,8.60
2022-08-17T03:45:32.497Z,8.00
2022-08-17T03:46:35.074Z,11.00
2022-08-17T03:47:32.474Z,7.80
2022-08-17T03:48:32.473Z,9.00
2022-08-17T03:49:32.466Z,10.00
2022-08-17T03:50:32.436Z,9.30
2022-08-17T03:51:33.482Z,9.10
2022-08-17T03:52:32.414Z,7.00
2022-08-17T03:53:32.412Z,7.80
2022-08-17T03:54:32.413Z,9.10
2022-08-17T03:55:36.029Z,7.90
2022-08-17T03:56:32.396Z,9.90
2022-08-17T03:57:32.365Z,8.90
2022-08-17T03:58:32.395Z,7.40
2022-08-17T03:59:32.340Z,8.40
2022-08-17T04:00:32.334Z,8.40
2022-08-17T04:01:32.353Z,10.10
2022-08-17T04:02:32.331Z,9.50
2022-08-17T04:03:32.317Z,8.80
2022-08-17T04:04:32.297Z,8.10
2022-08-17T04:05:32.275Z,10.60
2022-08-17T04:06:32.271Z,8.70
2022-08-17T04:07:32.275Z,11.20
2022-08-17T04:08:32.299Z,8.00
2022-08-17T04:09:32.241Z,8.90
2022-08-17T04:10:33.249Z,9.90
2022-08-17T04:11:32.232Z,11.90
2022-08-17T04:12:32.210Z,8.10
2022-08-17T04:13:32.238Z,11.00
2022-08-17T04:14:32.201Z,10.60
2022-08-17T04:15:32.186Z,10.30
2022-08-17T04:16:32.165Z,9.70
2022-08-17T04:17:32.169Z,10.30
2022-08-17T04:18:32.180Z,7.40
2022-08-17T04:19:32.146Z,8.00
2022-08-17T04:20:32.134Z,11.00
2022-08-17T04:21:32.125Z,9.80
2022-08-17T04:22:34.403Z,7.90
2022-08-17T04:23:32.131Z,8.70
2022-08-17T04:24:32.082Z,8.10
2022-08-17T04:25:32.069Z,7.30
2022-08-17T04:26:53.331Z,9.10
2022-08-17T04:27:32.051Z,8.10
2022-08-17T04:28:32.060Z,8.90
2022-08-17T04:29:50.091Z,7.70
2022-08-17T04:30:32.043Z,9.00
2022-08-17T04:31:32.010Z,7.70
2022-08-17T04:33:02.211Z,7.60
2022-08-17T04:33:31.996Z,9.00
2022-08-17T04:34:32.013Z,7.50
2022-08-17T04:35:31.971Z,10.50
2022-08-17T04:36:31.984Z,8.70
2022-08-17T04:37:31.946Z,8.40
2022-08-17T04:38:31.998Z,10.50
2022-08-17T04:39:33.845Z,10.00
2022-08-17T04:40:31.916Z,10.00
2022-08-17T04:41:31.898Z,11.20
2022-08-17T04:42:31.891Z,8.50
2022-08-17T04:43:31.898Z,10.50
2022-08-17T04:44:37.607Z,8.80
2022-08-17T04:45:32.246Z,10.00
2022-08-17T04:46:31.867Z,12.30
2022-08-17T04:47:31.836Z,9.60
2022-08-17T04:48:36.234Z,11.40
2022-08-17T04:49:31.831Z,9.30
2022-08-17T04:50:31.826Z,9.50
2022-08-17T04:51:31.795Z,11.30
2022-08-17T04:52:43.311Z,11.60
2022-08-17T04:53:31.815Z,9.70
2022-08-17T04:54:31.765Z,10.90
2022-08-17T04:55:31.752Z,16.50
2022-08-17T04:56:31.755Z,13.90
2022-08-17T04:57:39.463Z,15.00
2022-08-17T04:58:31.773Z,14.20
2022-08-17T04:59:31.727Z,14.90
2022-08-17T05:00:31.707Z,17.80
2022-08-17T05:01:31.801Z,19.50
2022-08-17T05:02:31.687Z,17.00
2022-08-17T05:03:31.709Z,16.70
2022-08-17T05:04:34.299Z,19.80
2022-08-17T05:05:31.660Z,19.10
2022-08-17T05:06:31.662Z,16.40
2022-08-17T05:07:31.812Z,17.60
2022-08-17T05:08:31.641Z,18.80
2022-08-17T05:09:31.629Z,17.40
2022-08-17T05:10:31.610Z,19.10
2022-08-17T05:11:31.597Z,21.20
2022-08-17T05:12:31.578Z,23.40
2022-08-17T05:13:31.595Z,25.30
2022-08-17T05:14:33.595Z,28.50
2022-08-17T05:15:33.115Z,31.20
2022-08-17T05:16:31.558Z,30.10
2022-08-17T05:17:31.554Z,31.10
2022-08-17T05:18:31.550Z,34.50
2022-08-17T05:19:31.504Z,34.30
2022-08-17T05:20:31.516Z,28.80
2022-08-17T05:21:31.556Z,30.80
2022-08-17T05:22:31.484Z,35.70
2022-08-17T05:23:35.559Z,28.40
2022-08-17T05:24:42.543Z,32.60
2022-08-17T05:25:34.444Z,31.70
2022-08-17T05:26:31.447Z,26.90
2022-08-17T05:27:35.203Z,29.80
2022-08-17T05:28:31.427Z,28.30
2022-08-17T05:29:35.329Z,24.80
2022-08-17T05:30:31.393Z,25.40
2022-08-17T05:31:31.420Z,30.60
2022-08-17T05:32:38.322Z,25.00
2022-08-17T05:33:31.403Z,27.80
2022-08-17T05:34:31.370Z,29.20
2022-08-17T05:35:31.380Z,30.80
2022-08-17T05:36:42.154Z,18.40
2022-08-17T05:37:31.339Z,24.10
2022-08-17T05:38:31.336Z,27.60
2022-08-17T05:39:31.397Z,26.30
2022-08-17T05:40:32.929Z,24.20
2022-08-17T05:41:31.281Z,25.10
2022-08-17T05:42:31.283Z,26.60
2022-08-17T05:43:31.532Z,31.40
2022-08-17T05:44:31.248Z,26.90
2022-08-17T05:45:54.455Z,28.70
2022-08-17T05:46:31.248Z,25.90
2022-08-17T05:47:31.211Z,26.50
2022-08-17T05:48:39.663Z,26.60
2022-08-17T05:49:31.225Z,28.00
2022-08-17T05:50:31.428Z,27.20
2022-08-17T05:51:31.172Z,26.70
2022-08-17T05:52:31.179Z,22.00
2022-08-17T05:53:31.385Z,23.60
2022-08-17T05:54:31.154Z,23.90
2022-08-17T05:55:31.140Z,27.70
2022-08-17T05:56:31.137Z,28.40
2022-08-17T05:57:31.107Z,28.20
2022-08-17T05:58:31.124Z,27.60
2022-08-17T05:59:31.125Z,28.00
2022-08-17T06:00:31.343Z,30.70
2022-08-17T06:01:31.119Z,22.20
2022-08-17T06:02:31.129Z,22.10
2022-08-17T06:03:31.245Z,23.40
2022-08-17T06:04:31.052Z,23.30
2022-08-17T06:05:31.022Z,28.40
2022-08-17T06:06:31.593Z,28.60
2022-08-17T06:07:31.000Z,30.50
2022-08-17T06:08:31.039Z,25.20
2022-08-17T06:09:33.819Z,24.50
2022-08-17T06:10:30.988Z,24.70
2022-08-17T06:11:30.979Z,23.90
2022-08-17T06:12:30.950Z,21.30
2022-08-17T06:13:30.937Z,23.30
2022-08-17T06:14:30.967Z,23.50
2022-08-17T06:15:31.139Z,23.30
2022-08-17T06:16:34.136Z,29.00
2022-08-17T06:17:31.492Z,22.60
2022-08-17T06:18:30.893Z,23.20
2022-08-17T06:19:32.058Z,20.50
2022-08-17T06:20:30.877Z,22.00
2022-08-17T06:21:32.314Z,27.50
2022-08-17T06:22:31.126Z,22.80
2022-08-17T06:23:30.845Z,22.90
2022-08-17T06:24:30.861Z,23.30
2022-08-17T06:25:30.997Z,20.30
2022-08-17T06:26:39.673Z,20.40
2022-08-17T06:27:30.793Z,21.70
2022-08-17T06:28:30.792Z,21.10
2022-08-17T06:29:30.808Z,21.10
2022-08-17T06:30:58.659Z,19.60
2022-08-17T06:31:30.765Z,18.60
2022-08-17T06:32:30.753Z,20.30
2022-08-17T06:33:30.728Z,18.80
2022-08-17T06:34:30.748Z,18.40
2022-08-17T06:35:31.972Z,19.70
2022-08-17T06:36:30.709Z,19.30
2022-08-17T06:37:30.683Z,16.60
2022-08-17T06:38:37.702Z,19.00
2022-08-17T06:39:30.814Z,19.00
2022-08-17T06:40:30.684Z,17.00
2022-08-17T06:41:30.648Z,17.40
2022-08-17T06:42:54.791Z,18.60
2022-08-17T06:43:30.649Z,20.00
2022-08-17T06:44:43.336Z,17.40
2022-08-17T06:45:31.583Z,14.80
2022-08-17T06:46:30.603Z,13.40
2022-08-17T06:47:30.596Z,16.80
2022-08-17T06:48:30.582Z,14.30
2022-08-17T06:49:30.606Z,19.90
2022-08-17T06:50:30.571Z,17.20
2022-08-17T06:51:30.545Z,21.50
2022-08-17T06:52:47.297Z,21.30
2022-08-17T06:53:30.547Z,23.40
2022-08-17T06:54:30.533Z,21.20
2022-08-17T06:55:34.536Z,25.70
2022-08-17T06:56:53.918Z,21.50
2022-08-17T06:57:30.770Z,22.00
2022-08-17T06:58:30.467Z,24.30
2022-08-17T06:59:47.162Z,27.10
2022-08-17T07:00:30.548Z,25.20
2022-08-17T07:01:30.513Z,22.50
2022-08-17T07:03:02.378Z,22.90
2022-08-17T07:03:30.427Z,24.50
2022-08-17T07:04:30.436Z,27.00
2022-08-17T07:05:30.491Z,23.20
2022-08-17T07:06:30.394Z,24.80
2022-08-17T07:07:30.661Z,30.20
2022-08-17T07:08:33.952Z,28.20
2022-08-17T07:09:30.390Z,25.70
2022-08-17T07:10:30.351Z,30.30
2022-08-17T07:11:30.345Z,30.60
2022-08-17T07:12:30.319Z,30.60
2022-08-17T07:13:30.318Z,30.80
2022-08-17T07:14:30.364Z,26.40
2022-08-17T07:15:30.316Z,20.80
2022-08-17T07:16:30.297Z,31.30
2022-08-17T07:17:47.699Z,29.20
2022-08-17T07:18:30.294Z,22.00
2022-08-17T07:19:30.289Z,23.70
2022-08-17T07:20:30.239Z,21.50
2022-08-17T07:21:30.239Z,15.40
2022-08-17T07:22:30.228Z,16.30
2022-08-17T07:23:30.234Z,14.70
2022-08-17T07:24:30.743Z,20.60
2022-08-17T07:25:30.208Z,19.20
2022-08-17T07:26:30.348Z,20.40
2022-08-17T07:27:30.184Z,21.40
2022-08-17T07:28:30.172Z,21.40
2022-08-17T07:29:30.170Z,17.10
2022-08-17T07:30:30.144Z,22.60
2022-08-17T07:31:30.128Z,25.90
2022-08-17T07:32:30.126Z,19.10
2022-08-17T07:33:30.150Z,18.30
2022-08-17T07:34:30.089Z,20.50
2022-08-17T07:35:37.559Z,22.20
2022-08-17T07:36:30.345Z,22.50
2022-08-17T07:37:30.255Z,26.90
2022-08-17T07:38:30.069Z,25.00
2022-08-17T07:39:30.104Z,23.00
2022-08-17T07:40:30.098Z,25.80
2022-08-17T07:41:53.224Z,23.70
2022-08-17T07:42:30.012Z,26.50
2022-08-17T07:43:31.202Z,20.50
2022-08-17T07:44:30.006Z,15.50
2022-08-17T07:45:29.994Z,17.80
2022-08-17T07:46:30.038Z,20.10
2022-08-17T07:47:29.984Z,23.70
2022-08-17T07:48:30.076Z,21.70
2022-08-17T07:49:29.942Z,24.20
2022-08-17T07:50:29.936Z,21.80
2022-08-17T07:51:29.937Z,20.70
2022-08-17T07:52:48.472Z,19.10
2022-08-17T07:53:29.941Z,17.60
2022-08-17T07:54:29.887Z,23.30
2022-08-17T07:55:29.883Z,16.50
2022-08-17T07:56:34.650Z,18.20
2022-08-17T07:57:30.214Z,19.60
2022-08-17T07:58:29.869Z,15.50
2022-08-17T07:59:33.742Z,16.80
2022-08-17T08:00:32.170Z,20.50
2022-08-17T08:01:41.877Z,12.70
2022-08-17T08:02:33.584Z,11.40
2022-08-17T08:03:29.891Z,12.50
2022-08-17T08:05:49.133Z,12.70
2022-08-17T08:06:29.765Z,14.20
2022-08-17T08:07:29.761Z,17.10
2022-08-17T08:08:29.753Z,15.90
2022-08-17T08:09:29.772Z,17.70
2022-08-17T08:10:29.716Z,19.00
2022-08-17T08:11:29.734Z,21.70
2022-08-17T08:12:33.437Z,22.20
2022-08-17T08:13:29.709Z,21.90
2022-08-17T08:14:29.686Z,27.00
2022-08-17T08:15:29.675Z,21.00
2022-08-17T08:16:29.799Z,21.70
2022-08-17T08:17:29.643Z,20.30
2022-08-17T08:18:53.438Z,21.80
2022-08-17T08:19:29.649Z,19.50
2022-08-17T08:20:52.168Z,21.90
2022-08-17T08:21:29.614Z,27.00
2022-08-17T08:22:29.607Z,26.00
2022-08-17T08:23:29.604Z,26.30
2022-08-17T08:24:30.866Z,28.00
2022-08-17T08:25:29.563Z,31.50
2022-08-17T08:26:29.577Z,23.40
2022-08-17T08:27:29.557Z,23.70
2022-08-17T08:28:29.556Z,26.30
2022-08-17T08:29:29.590Z,22.90
2022-08-17T08:30:29.547Z,29.90
2022-08-17T08:31:29.502Z,27.00
2022-08-17T08:32:29.499Z,28.60
2022-08-17T08:33:29.499Z,32.10
2022-08-17T08:35:00.911Z,26.40
2022-08-17T08:35:29.500Z,31.60
2022-08-17T08:37:14.955Z,23.60
2022-08-17T08:37:35.547Z,34.30
2022-08-17T08:38:29.448Z,39.60
2022-08-17T08:39:29.474Z,25.90
2022-08-17T08:40:29.439Z,25.40
2022-08-17T08:41:29.481Z,19.80
2022-08-17T08:42:29.380Z,24.10
2022-08-17T08:43:29.578Z,22.40
2022-08-17T08:45:00.296Z,23.10
2022-08-17T08:45:29.361Z,24.20
2022-08-17T08:46:29.360Z,22.40
2022-08-17T08:47:29.331Z,16.90
2022-08-17T08:48:55.956Z,22.50
2022-08-17T08:49:59.140Z,24.50
2022-08-17T08:50:37.049Z,27.20
2022-08-17T08:51:29.294Z,25.50
2022-08-17T08:52:29.275Z,26.80
2022-08-17T08:53:29.312Z,23.70
2022-08-17T08:54:29.266Z,31.60
2022-08-17T08:55:29.274Z,25.90
2022-08-17T08:56:29.251Z,31.60
2022-08-17T08:57:33.733Z,31.30
2022-08-17T08:58:31.604Z,27.30
2022-08-17T08:59:29.247Z,20.80
2022-08-17T09:00:29.190Z,24.20
2022-08-17T09:01:29.197Z,22.60
2022-08-17T09:02:29.184Z,29.40
2022-08-17T09:03:51.893Z,28.90
2022-08-17T09:04:29.175Z,24.70
2022-08-17T09:05:29.142Z,20.50
2022-08-17T09:06:37.736Z,26.10
2022-08-17T09:07:29.197Z,21.90
2022-08-17T09:08:29.136Z,17.50
2022-08-17T09:09:29.102Z,22.20
2022-08-17T09:10:29.098Z,24.00
2022-08-17T09:11:29.091Z,31.30
2022-08-17T09:12:29.094Z,26.70
2022-08-17T09:13:29.088Z,44.30
2022-08-17T09:14:29.051Z,26.70
2022-08-17T09:15:29.049Z,19.40
2022-08-17T09:16:29.051Z,24.70
2022-08-17T09:17:29.027Z,19.80
2022-08-17T09:19:02.770Z,14.50
2022-08-17T09:19:29.019Z,18.30
2022-08-17T09:20:29.016Z,16.20
2022-08-17T09:21:29.059Z,18.00
2022-08-17T09:22:29.015Z,14.80
2022-08-17T09:23:29.029Z,17.30
2022-08-17T09:24:28.968Z,17.70
2022-08-17T09:25:29.005Z,15.60
2022-08-17T09:26:28.975Z,14.50
2022-08-17T09:27:28.935Z,15.00
2022-08-17T09:28:28.943Z,15.30
2022-08-17T09:29:28.910Z,18.90
2022-08-17T09:30:28.877Z,14.10
2022-08-17T09:31:33.258Z,16.60
2022-08-17T09:32:28.856Z,13.30
2022-08-17T09:33:28.935Z,17.40
2022-08-17T09:34:33.216Z,16.30
2022-08-17T09:35:36.475Z,12.70
2022-08-17T09:36:28.820Z,15.10
2022-08-17T09:37:28.828Z,14.90
2022-08-17T09:38:32.284Z,12.90
2022-08-17T09:39:28.852Z,16.20
2022-08-17T09:40:28.784Z,13.90
2022-08-17T09:41:28.781Z,16.00
2022-08-17T09:42:28.770Z,16.70
2022-08-17T09:43:28.775Z,15.90
2022-08-17T09:44:28.731Z,14.00
2022-08-17T09:45:28.750Z,16.80
2022-08-17T09:46:28.728Z,16.50
2022-08-17T09:47:28.737Z,17.30
2022-08-17T09:48:28.731Z,15.60
2022-08-17T09:49:28.696Z,16.80
2022-08-17T09:50:57.373Z,20.60
2022-08-17T09:51:28.669Z,15.00
2022-08-17T09:52:28.669Z,16.40
2022-08-17T09:53:31.774Z,14.90
2022-08-17T09:54:39.070Z,15.80
2022-08-17T09:55:28.626Z,15.30
2022-08-17T09:56:28.633Z,16.70
2022-08-17T09:57:30.654Z,14.50
2022-08-17T09:58:29.182Z,11.60
2022-08-17T09:59:35.949Z,14.20
2022-08-17T10:00:28.591Z,16.40
2022-08-17T10:01:28.648Z,22.90
2022-08-17T10:02:28.572Z,31.40
2022-08-17T10:03:28.575Z,29.80
2022-08-17T10:04:29.738Z,24.90
2022-08-17T10:05:28.537Z,18.80
2022-08-17T10:06:28.513Z,16.40
2022-08-17T10:07:28.513Z,14.40
2022-08-17T10:08:28.488Z,13.30
2022-08-17T10:09:28.498Z,16.10
2022-08-17T10:10:28.480Z,15.70
2022-08-17T10:11:33.738Z,12.50
2022-08-17T10:12:30.073Z,15.20
2022-08-17T10:13:28.442Z,16.10
2022-08-17T10:14:37.836Z,12.90
2022-08-17T10:15:28.435Z,13.70
2022-08-17T10:16:28.406Z,15.10
2022-08-17T10:17:28.391Z,13.50
2022-08-17T10:18:31.954Z,12.50
2022-08-17T10:19:28.382Z,14.60
2022-08-17T10:20:28.382Z,13.80
2022-08-17T10:21:28.361Z,14.20
2022-08-17T10:22:35.010Z,11.40
2022-08-17T10:23:28.598Z,9.30
2022-08-17T10:24:28.334Z,8.40
2022-08-17T10:25:42.882Z,10.50
2022-08-17T10:26:28.301Z,10.20
2022-08-17T10:27:28.302Z,13.10
2022-08-17T10:28:30.095Z,11.30
2022-08-17T10:29:29.000Z,13.20
2022-08-17T10:30:28.258Z,22.20
2022-08-17T10:31:34.605Z,24.60
2022-08-17T10:32:28.247Z,19.20
2022-08-17T10:33:28.255Z,19.10
2022-08-17T10:34:28.226Z,18.70
2022-08-17T10:35:28.258Z,14.20
2022-08-17T10:36:28.208Z,13.30
2022-08-17T10:37:28.182Z,8.80
2022-08-17T10:38:28.198Z,10.80
2022-08-17T10:39:28.223Z,10.00
2022-08-17T10:40:28.198Z,10.70
2022-08-17T10:41:28.144Z,8.40
2022-08-17T10:42:30.906Z,10.40
2022-08-17T10:43:28.153Z,8.70
2022-08-17T10:44:38.694Z,8.20
2022-08-17T10:45:28.106Z,10.90
2022-08-17T10:46:31.145Z,10.90
2022-08-17T10:47:28.094Z,13.00
2022-08-17T10:48:28.085Z,18.80
2022-08-17T10:49:28.085Z,27.30
2022-08-17T10:50:28.051Z,19.30
2022-08-17T10:51:28.037Z,15.90
2022-08-17T10:52:28.030Z,11.50
2022-08-17T10:53:28.075Z,13.30
2022-08-17T10:54:27.999Z,9.90
2022-08-17T10:55:27.992Z,9.40
2022-08-17T10:56:27.980Z,9.70
2022-08-17T10:57:27.979Z,9.30
2022-08-17T10:58:27.992Z,11.40
2022-08-17T10:59:27.948Z,9.00
2022-08-17T11:00:27.971Z,9.70
2022-08-17T11:01:27.985Z,8.50
2022-08-17T11:02:27.950Z,10.70
2022-08-17T11:03:27.928Z,12.60
2022-08-17T11:04:27.899Z,23.60
2022-08-17T11:05:27.891Z,29.20
2022-08-17T11:06:27.896Z,27.30
2022-08-17T11:07:27.887Z,36.70
2022-08-17T11:08:27.891Z,13.00
2022-08-17T11:09:27.850Z,10.70
2022-08-17T11:10:27.839Z,9.10
2022-08-17T11:11:27.840Z,7.70
2022-08-17T11:12:27.815Z,10.20
2022-08-17T11:13:27.830Z,9.30
2022-08-17T11:14:27.796Z,8.40
2022-08-17T11:15:27.800Z,7.60
2022-08-17T11:16:27.773Z,11.80
2022-08-17T11:17:27.761Z,10.40
2022-08-17T11:18:27.773Z,8.10
2022-08-17T11:19:27.754Z,7.20
2022-08-17T11:20:27.735Z,8.00
2022-08-17T11:21:27.723Z,10.20
2022-08-17T11:22:31.363Z,7.90
2022-08-17T11:23:27.720Z,7.40
2022-08-17T11:24:27.713Z,6.90
2022-08-17T11:25:27.688Z,6.60
2022-08-17T11:26:27.671Z,8.20
2022-08-17T11:27:27.660Z,6.30
2022-08-17T11:28:27.684Z,9.30
2022-08-17T11:29:27.641Z,8.00
2022-08-17T11:30:27.648Z,7.90
2022-08-17T11:31:38.456Z,9.10
2022-08-17T11:32:27.631Z,8.00
2022-08-17T11:33:27.632Z,7.30
2022-08-17T11:34:27.602Z,8.10
2022-08-17T11:35:27.570Z,8.20
2022-08-17T11:36:27.580Z,11.30
2022-08-17T11:37:27.552Z,7.40
2022-08-17T11:38:28.549Z,7.80
2022-08-17T11:39:27.629Z,6.80
2022-08-17T11:40:27.523Z,8.20
2022-08-17T11:41:27.561Z,8.40
2022-08-17T11:42:27.772Z,8.60
2022-08-17T11:43:27.519Z,7.80
2022-08-17T11:44:27.478Z,8.20
2022-08-17T11:45:31.714Z,5.80
2022-08-17T11:46:27.489Z,6.90
2022-08-17T11:47:27.646Z,6.60
2022-08-17T11:48:28.889Z,6.10
2022-08-17T11:49:27.444Z,6.10
2022-08-17T11:50:28.097Z,7.40
2022-08-17T11:51:27.413Z,7.60
2022-08-17T11:52:28.267Z,6.80
2022-08-17T11:53:27.419Z,7.90
2022-08-17T11:54:34.935Z,6.50
2022-08-17T11:55:38.232Z,6.30
2022-08-17T11:56:27.361Z,7.50
2022-08-17T11:57:27.388Z,5.90
2022-08-17T11:58:27.418Z,7.60
2022-08-17T11:59:27.356Z,6.20
2022-08-17T12:00:27.325Z,6.30
2022-08-17T12:01:27.308Z,7.60
2022-08-17T12:02:27.301Z,6.90
2022-08-17T12:03:27.385Z,6.50
2022-08-17T12:04:27.398Z,6.60
2022-08-17T12:05:27.369Z,6.80
2022-08-17T12:06:30.789Z,7.50
2022-08-17T12:07:27.278Z,5.90
2022-08-17T12:08:27.307Z,8.40
2022-08-17T12:09:27.240Z,7.40
2022-08-17T12:10:27.216Z,7.00
2022-08-17T12:12:11.090Z,5.80
2022-08-17T12:12:27.195Z,6.10
2022-08-17T12:13:33.984Z,7.50
2022-08-17T12:14:45.348Z,6.20
2022-08-17T12:15:27.206Z,6.20
2022-08-17T12:16:27.155Z,7.40
2022-08-17T12:17:41.206Z,5.60
2022-08-17T12:18:27.173Z,7.50
2022-08-17T12:19:27.125Z,7.30
2022-08-17T12:20:27.121Z,6.20
2022-08-17T12:21:27.114Z,4.80
2022-08-17T12:22:27.109Z,5.70
2022-08-17T12:23:27.093Z,5.30
2022-08-17T12:24:27.084Z,5.20
2022-08-17T12:25:27.079Z,5.90
2022-08-17T12:26:27.073Z,4.60
2022-08-17T12:28:04.197Z,5.40
2022-08-17T12:28:27.077Z,5.30
2022-08-17T12:29:35.566Z,5.50
2022-08-17T12:30:27.015Z,4.50
2022-08-17T12:31:27.017Z,5.60
2022-08-17T12:32:27.031Z,4.90
2022-08-17T12:33:28.463Z,5.00
2022-08-17T12:34:26.968Z,5.00
2022-08-17T12:35:26.981Z,3.90
2022-08-17T12:36:26.946Z,6.20
2022-08-17T12:37:26.977Z,4.50
2022-08-17T12:38:33.199Z,4.00
2022-08-17T12:39:26.949Z,4.60
2022-08-17T12:40:26.923Z,5.00
2022-08-17T12:41:26.961Z,4.20
2022-08-17T12:42:26.905Z,4.80
2022-08-17T12:43:26.888Z,4.70
2022-08-17T12:44:26.864Z,5.60
2022-08-17T12:45:26.850Z,4.10
2022-08-17T12:46:26.855Z,4.10
2022-08-17T12:47:29.497Z,4.00
2022-08-17T12:48:26.836Z,5.10
2022-08-17T12:49:26.807Z,4.90
2022-08-17T12:50:28.485Z,3.30
2022-08-17T12:51:26.803Z,4.80
2022-08-17T12:52:26.812Z,4.80
2022-08-17T12:53:26.780Z,4.70
2022-08-17T12:54:26.806Z,3.70
2022-08-17T12:55:27.669Z,5.80
2022-08-17T12:56:26.786Z,3.80
2022-08-17T12:57:26.761Z,4.90
2022-08-17T12:58:26.758Z,3.70
2022-08-17T12:59:29.695Z,4.10
2022-08-17T13:00:26.733Z,5.20
2022-08-17T13:01:26.805Z,4.10
2022-08-17T13:02:26.732Z,4.50
2022-08-17T13:03:26.685Z,5.30
2022-08-17T13:04:26.712Z,5.70
2022-08-17T13:05:26.688Z,4.90
2022-08-17T13:06:26.644Z,4.20